createdAt,value
2019-04-30T00:01:25.152Z,11.80
2019-04-30T00:04:17.950Z,11.80
2019-04-30T00:06:49.431Z,11.70
2019-04-30T00:09:25.048Z,11.60
2019-04-30T00:12:00.948Z,11.60
2019-04-30T00:14:36.819Z,11.70
2019-04-30T00:17:03.195Z,11.70
2019-04-30T00:19:35.920Z,11.80
2019-04-30T00:22:07.331Z,11.90
2019-04-30T00:24:39.808Z,11.80
2019-04-30T00:27:11.572Z,11.70
2019-04-30T00:29:42.851Z,11.70
2019-04-30T00:32:15.867Z,11.70
2019-04-30T00:34:47.363Z,11.80
2019-04-30T00:37:18.973Z,11.90
2019-04-30T00:39:51.325Z,11.90
2019-04-30T00:42:24.189Z,11.90
2019-04-30T00:44:59.575Z,11.70
2019-04-30T00:47:29.184Z,11.60
2019-04-30T00:50:00.552Z,11.40
2019-04-30T00:52:33.874Z,11.30
2019-04-30T00:55:09.030Z,11.50
2019-04-30T00:57:43.712Z,11.40
2019-04-30T01:00:17.811Z,11.50
2019-04-30T01:03:07.857Z,11.50
2019-04-30T01:05:39.694Z,11.50
2019-04-30T01:08:09.966Z,11.60
2019-04-30T01:10:41.186Z,11.50
2019-04-30T01:13:12.394Z,11.40
2019-04-30T01:15:48.227Z,11.40
2019-04-30T01:18:17.027Z,11.40
2019-04-30T01:20:48.924Z,11.20
2019-04-30T01:23:20.379Z,11.10
2019-04-30T01:25:52.057Z,11.00
2019-04-30T01:28:24.419Z,11.00
2019-04-30T01:30:58.752Z,11.00
2019-04-30T01:33:34.587Z,10.90
2019-04-30T01:36:08.217Z,10.90
2019-04-30T01:38:35.493Z,10.90
2019-04-30T01:41:06.773Z,11.00
2019-04-30T01:43:38.582Z,11.20
2019-04-30T01:46:13.861Z,11.20
2019-04-30T01:48:43.612Z,11.00
2019-04-30T01:51:20.458Z,11.00
2019-04-30T01:53:49.001Z,10.90
2019-04-30T01:56:29.906Z,10.80
2019-04-30T01:59:19.950Z,10.80
2019-04-30T02:01:51.602Z,10.90
2019-04-30T02:04:23.082Z,11.00
2019-04-30T02:06:54.348Z,11.10
2019-04-30T02:09:24.313Z,11.00
2019-04-30T02:11:55.763Z,11.00
2019-04-30T02:14:28.650Z,11.00
2019-04-30T02:16:59.924Z,10.90
2019-04-30T02:19:31.302Z,10.90
2019-04-30T02:22:02.653Z,10.90
2019-04-30T02:24:33.857Z,10.90
2019-04-30T02:27:05.277Z,11.00
2019-04-30T02:29:36.845Z,11.00
2019-04-30T02:32:10.106Z,11.00
2019-04-30T02:34:49.761Z,10.90
2019-04-30T02:37:24.198Z,10.80
2019-04-30T02:39:55.585Z,10.80
2019-04-30T02:42:29.695Z,10.80
2019-04-30T02:45:03.770Z,10.70
2019-04-30T02:47:36.860Z,10.70
2019-04-30T02:50:15.265Z,10.70
2019-04-30T02:52:44.636Z,10.70
2019-04-30T02:55:21.277Z,10.70
2019-04-30T02:57:52.367Z,10.60
2019-04-30T03:00:23.912Z,10.70
2019-04-30T03:02:55.382Z,10.80
2019-04-30T03:05:26.717Z,10.80
2019-04-30T03:08:00.476Z,10.70
2019-04-30T03:10:30.827Z,10.80
2019-04-30T03:13:01.933Z,10.70
2019-04-30T03:15:33.175Z,10.70
2019-04-30T03:18:11.330Z,10.70
2019-04-30T03:21:04.538Z,10.70
2019-04-30T03:23:35.744Z,10.70
2019-04-30T03:26:09.710Z,10.60
2019-04-30T03:28:39.924Z,10.60
2019-04-30T03:31:12.814Z,10.90
2019-04-30T03:33:44.341Z,10.80
2019-04-30T03:36:15.531Z,10.90
2019-04-30T03:38:46.811Z,10.80
2019-04-30T03:41:19.845Z,10.60
2019-04-30T03:43:51.281Z,10.70
2019-04-30T03:46:22.830Z,10.70
2019-04-30T03:48:54.146Z,10.60
2019-04-30T03:51:25.600Z,10.50
2019-04-30T03:53:59.560Z,10.40
2019-04-30T03:56:30.578Z,10.40
2019-04-30T03:59:01.754Z,10.30
2019-04-30T04:01:42.915Z,10.30
2019-04-30T04:04:42.418Z,10.20
2019-04-30T04:07:22.775Z,10.20
2019-04-30T04:10:03.120Z,10.30
2019-04-30T04:12:34.250Z,10.30
2019-04-30T04:15:05.653Z,10.30
2019-04-30T04:17:39.660Z,10.30
2019-04-30T04:20:10.918Z,10.50
2019-04-30T04:22:42.214Z,10.50
2019-04-30T04:25:13.927Z,10.60
2019-04-30T04:27:45.277Z,10.80
2019-04-30T04:30:20.010Z,10.70
2019-04-30T04:32:50.994Z,10.60
2019-04-30T04:35:22.264Z,10.60
2019-04-30T04:37:53.627Z,10.60
2019-04-30T04:40:24.861Z,10.60
2019-04-30T04:42:56.003Z,10.60
2019-04-30T04:45:27.204Z,10.50
2019-04-30T04:48:00.095Z,10.50
2019-04-30T04:50:31.226Z,10.40
2019-04-30T04:53:02.764Z,10.50
2019-04-30T04:55:34.054Z,10.40
2019-04-30T04:58:05.254Z,10.40
2019-04-30T05:00:39.076Z,10.50
2019-04-30T05:03:15.896Z,10.60
2019-04-30T05:05:49.777Z,10.70
2019-04-30T05:08:20.801Z,10.70
2019-04-30T05:10:52.627Z,10.80
2019-04-30T05:13:24.093Z,10.90
2019-04-30T05:15:56.068Z,10.90
2019-04-30T05:18:29.135Z,10.90
2019-04-30T05:21:00.760Z,10.90
2019-04-30T05:23:31.985Z,11.00
2019-04-30T05:26:03.269Z,11.10
2019-04-30T05:28:34.550Z,11.00
2019-04-30T05:31:05.957Z,10.90
2019-04-30T05:33:38.942Z,11.00
2019-04-30T05:36:10.368Z,11.10
2019-04-30T05:38:41.585Z,11.10
2019-04-30T05:41:13.172Z,11.20
2019-04-30T05:43:44.629Z,11.40
2019-04-30T05:46:15.829Z,11.40
2019-04-30T05:48:49.347Z,11.30
2019-04-30T05:51:21.307Z,11.20
2019-04-30T05:53:52.630Z,11.30
2019-04-30T05:56:23.761Z,11.20
2019-04-30T05:58:55.333Z,11.40
2019-04-30T06:01:26.603Z,11.40
2019-04-30T06:03:59.453Z,11.50
2019-04-30T06:06:33.578Z,11.60
2019-04-30T06:09:18.757Z,12.00
2019-04-30T06:12:11.270Z,12.00
2019-04-30T06:14:51.197Z,12.30
2019-04-30T06:17:20.678Z,12.70
2019-04-30T06:19:52.024Z,13.30
2019-04-30T06:22:23.978Z,14.00
2019-04-30T06:24:55.315Z,14.10
2019-04-30T06:27:29.017Z,13.90
2019-04-30T06:30:00.135Z,13.70
2019-04-30T06:32:31.725Z,13.60
2019-04-30T06:35:03.376Z,13.30
2019-04-30T06:37:34.648Z,13.40
2019-04-30T06:40:06.434Z,13.20
2019-04-30T06:42:39.288Z,13.00
2019-04-30T06:45:10.955Z,12.90
2019-04-30T06:47:43.615Z,12.90
2019-04-30T06:50:15.609Z,13.10
2019-04-30T06:52:56.633Z,13.10
2019-04-30T06:55:20.037Z,13.10
2019-04-30T06:57:51.597Z,13.10
2019-04-30T07:00:35.703Z,12.90
2019-04-30T07:03:09.630Z,12.90
2019-04-30T07:05:41.043Z,13.10
2019-04-30T07:08:37.325Z,13.10
2019-04-30T07:11:26.945Z,13.30
2019-04-30T07:14:00.058Z,14.20
2019-04-30T07:16:31.738Z,15.60
2019-04-30T07:19:03.264Z,16.00
2019-04-30T07:21:36.467Z,16.50
2019-04-30T07:24:09.378Z,16.30
2019-04-30T07:26:40.735Z,16.40
2019-04-30T07:29:12.501Z,16.20
2019-04-30T07:31:43.700Z,16.90
2019-04-30T07:34:14.996Z,18.10
2019-04-30T07:36:49.300Z,18.30
2019-04-30T07:39:23.531Z,17.00
2019-04-30T07:41:52.425Z,16.20
2019-04-30T07:44:35.475Z,15.70
2019-04-30T07:46:56.685Z,15.80
2019-04-30T07:49:46.159Z,16.20
2019-04-30T07:52:01.920Z,17.00
2019-04-30T07:54:33.490Z,16.90
2019-04-30T07:57:04.838Z,16.50
2019-04-30T07:59:36.032Z,16.00
2019-04-30T08:02:14.298Z,16.10
2019-04-30T08:05:05.807Z,16.30
2019-04-30T08:07:38.937Z,16.10
2019-04-30T08:10:10.321Z,15.60
2019-04-30T08:12:43.210Z,15.40
2019-04-30T08:15:14.501Z,15.20
2019-04-30T08:17:46.053Z,15.60
2019-04-30T08:20:19.481Z,16.10
2019-04-30T08:22:50.184Z,16.30
2019-04-30T08:25:22.028Z,15.80
2019-04-30T08:27:53.410Z,15.80
2019-04-30T08:30:27.014Z,16.50
2019-04-30T08:32:59.557Z,16.40
2019-04-30T08:35:30.569Z,16.50
2019-04-30T08:38:02.150Z,17.70
2019-04-30T08:40:33.757Z,19.30
2019-04-30T08:43:05.387Z,21.40
2019-04-30T08:45:38.560Z,21.50
2019-04-30T08:48:09.972Z,21.60
2019-04-30T08:50:41.348Z,20.80
2019-04-30T08:53:12.612Z,22.10
2019-04-30T08:55:43.842Z,21.70
2019-04-30T08:58:15.351Z,23.60
2019-04-30T09:00:48.468Z,23.90
2019-04-30T09:03:19.684Z,23.70
2019-04-30T09:06:22.223Z,24.90
2019-04-30T09:08:56.553Z,24.00
2019-04-30T09:11:35.326Z,23.90
2019-04-30T09:14:00.905Z,22.30
2019-04-30T09:16:32.189Z,20.80
2019-04-30T09:19:03.450Z,19.30
2019-04-30T09:21:34.708Z,19.40
2019-04-30T09:24:06.175Z,20.60
2019-04-30T09:26:39.174Z,22.00
2019-04-30T09:29:10.567Z,23.60
2019-04-30T09:31:42.012Z,22.40
2019-04-30T09:34:17.071Z,21.50
2019-04-30T09:36:46.716Z,22.20
2019-04-30T09:39:19.922Z,23.90
2019-04-30T09:41:50.862Z,25.20
2019-04-30T09:44:22.135Z,26.50
2019-04-30T09:46:53.248Z,25.90
2019-04-30T09:49:24.445Z,25.50
2019-04-30T09:51:55.684Z,26.20
2019-04-30T09:54:28.801Z,25.90
2019-04-30T09:56:59.722Z,25.30
2019-04-30T09:59:31.006Z,24.70
2019-04-30T10:02:02.582Z,23.70
2019-04-30T10:04:34.775Z,22.80
2019-04-30T10:07:06.419Z,23.10
2019-04-30T10:09:37.758Z,23.00
2019-04-30T10:12:16.404Z,23.50
2019-04-30T10:14:49.467Z,22.20
2019-04-30T10:17:35.849Z,21.80
2019-04-30T10:20:12.272Z,22.80
2019-04-30T10:22:43.639Z,22.70
2019-04-30T10:25:15.271Z,24.30
2019-04-30T10:27:46.738Z,24.40
2019-04-30T10:30:21.333Z,24.10
2019-04-30T10:32:52.547Z,24.10
2019-04-30T10:35:23.912Z,24.40
2019-04-30T10:37:55.108Z,24.50
2019-04-30T10:40:28.574Z,23.90
2019-04-30T10:43:00.027Z,23.10
2019-04-30T10:45:31.825Z,22.50
2019-04-30T10:48:03.363Z,22.20
2019-04-30T10:50:34.708Z,22.40
2019-04-30T10:53:06.091Z,22.20
2019-04-30T10:55:38.764Z,21.70
2019-04-30T10:58:10.665Z,22.90
2019-04-30T11:00:43.271Z,23.20
2019-04-30T11:03:19.932Z,23.10
2019-04-30T11:05:48.805Z,23.00
2019-04-30T11:08:21.639Z,23.00
2019-04-30T11:10:52.950Z,21.90
2019-04-30T11:13:24.258Z,21.80
2019-04-30T11:15:55.503Z,22.00
2019-04-30T11:18:27.008Z,21.50
2019-04-30T11:20:59.653Z,21.70
2019-04-30T11:23:31.586Z,20.90
2019-04-30T11:26:03.671Z,20.20
2019-04-30T11:28:35.857Z,20.10
2019-04-30T11:31:25.121Z,20.50
2019-04-30T11:33:57.887Z,20.30
2019-04-30T11:36:29.307Z,20.00
2019-04-30T11:39:00.682Z,20.00
2019-04-30T11:41:33.318Z,20.30
2019-04-30T11:44:05.370Z,20.30
2019-04-30T11:47:09.538Z,20.40
2019-04-30T11:49:40.827Z,20.20
2019-04-30T11:52:12.404Z,20.00
2019-04-30T11:54:51.311Z,19.80
2019-04-30T11:57:18.597Z,19.80
2019-04-30T11:59:49.927Z,19.80
2019-04-30T12:02:29.291Z,19.90
2019-04-30T12:05:01.189Z,20.20
2019-04-30T12:07:51.372Z,20.50
2019-04-30T12:10:33.085Z,20.40
2019-04-30T12:13:04.438Z,19.90
2019-04-30T12:15:35.798Z,19.90
2019-04-30T12:18:07.171Z,20.60
2019-04-30T12:20:38.436Z,20.20
2019-04-30T12:23:11.738Z,20.30
2019-04-30T12:25:42.977Z,20.40
2019-04-30T12:28:14.336Z,20.10
2019-04-30T12:30:45.668Z,20.50
2019-04-30T12:33:18.998Z,21.00
2019-04-30T12:35:51.332Z,21.10
2019-04-30T12:38:23.211Z,21.00
2019-04-30T12:40:54.906Z,20.60
2019-04-30T12:43:26.455Z,20.50
2019-04-30T12:46:03.308Z,20.80
2019-04-30T12:48:40.273Z,21.10
2019-04-30T12:51:21.304Z,21.10
2019-04-30T12:53:57.037Z,21.00
2019-04-30T12:56:40.559Z,20.70
2019-04-30T12:59:12.227Z,20.50
2019-04-30T13:01:43.521Z,20.40
2019-04-30T13:04:14.787Z,20.50
2019-04-30T13:06:48.384Z,20.50
2019-04-30T13:09:20.556Z,20.70
2019-04-30T13:11:52.584Z,20.80
2019-04-30T13:14:24.983Z,20.60
2019-04-30T13:16:58.933Z,20.80
2019-04-30T13:19:30.011Z,20.80
2019-04-30T13:22:01.951Z,20.90
2019-04-30T13:24:33.688Z,20.80
2019-04-30T13:27:05.103Z,20.60
2019-04-30T13:29:55.385Z,20.60
2019-04-30T13:32:32.199Z,20.50
2019-04-30T13:35:01.854Z,20.10
2019-04-30T13:37:42.593Z,20.00
2019-04-30T13:40:32.047Z,20.20
2019-04-30T13:43:03.447Z,20.20
2019-04-30T13:45:35.247Z,20.30
2019-04-30T13:48:08.816Z,20.30
2019-04-30T13:50:40.210Z,20.70
2019-04-30T13:53:11.797Z,21.00
2019-04-30T13:55:45.891Z,21.10
2019-04-30T13:58:16.680Z,20.50
2019-04-30T14:00:49.442Z,20.30
2019-04-30T14:03:34.773Z,20.20
2019-04-30T14:06:09.097Z,20.30
2019-04-30T14:08:45.052Z,20.00
2019-04-30T14:11:16.681Z,20.10
2019-04-30T14:13:48.227Z,20.00
2019-04-30T14:16:20.068Z,19.70
2019-04-30T14:18:51.654Z,19.70
2019-04-30T14:21:33.151Z,19.70
2019-04-30T14:23:56.225Z,19.90
2019-04-30T14:26:29.235Z,19.70
2019-04-30T14:29:00.893Z,19.90
2019-04-30T14:31:32.124Z,19.70
2019-04-30T14:34:03.456Z,19.60
2019-04-30T14:36:34.785Z,19.80
2019-04-30T14:39:14.457Z,19.80
2019-04-30T14:41:42.348Z,19.50
2019-04-30T14:44:20.027Z,19.40
2019-04-30T14:47:04.958Z,19.40
2019-04-30T14:50:01.596Z,19.40
2019-04-30T14:52:27.061Z,19.50
2019-04-30T14:55:18.766Z,19.60
2019-04-30T14:58:10.153Z,19.70
2019-04-30T15:00:52.076Z,19.60
2019-04-30T15:03:25.708Z,19.60
2019-04-30T15:05:58.861Z,19.60
2019-04-30T15:08:30.138Z,19.60
2019-04-30T15:11:01.413Z,19.90
2019-04-30T15:13:32.775Z,19.90
2019-04-30T15:16:04.064Z,19.60
2019-04-30T15:18:35.377Z,19.50
2019-04-30T15:21:06.803Z,19.60
2019-04-30T15:23:58.605Z,19.50
2019-04-30T15:26:25.068Z,19.40
2019-04-30T15:28:57.528Z,19.30
2019-04-30T15:31:29.703Z,19.20
2019-04-30T15:34:06.630Z,19.30
2019-04-30T15:36:39.240Z,19.60
2019-04-30T15:39:33.747Z,19.60
2019-04-30T15:42:05.637Z,19.60
2019-04-30T15:44:42.621Z,19.40
2019-04-30T15:47:10.313Z,19.50
2019-04-30T15:49:41.627Z,19.50
2019-04-30T15:52:12.976Z,19.40
2019-04-30T15:54:44.102Z,19.20
2019-04-30T15:57:15.424Z,19.30
2019-04-30T15:59:47.015Z,19.10
2019-04-30T16:02:55.679Z,19.00
2019-04-30T16:05:27.806Z,18.90
2019-04-30T16:08:21.192Z,18.90
2019-04-30T16:11:01.354Z,18.90
2019-04-30T16:13:39.474Z,18.90
2019-04-30T16:16:13.128Z,19.00
2019-04-30T16:18:49.421Z,19.00
2019-04-30T16:21:20.984Z,19.00
2019-04-30T16:23:52.585Z,18.80
2019-04-30T16:26:24.192Z,18.70
2019-04-30T16:28:55.429Z,18.60
2019-04-30T16:31:26.795Z,18.30
2019-04-30T16:33:58.104Z,18.20
2019-04-30T16:36:29.322Z,18.20
2019-04-30T16:39:00.907Z,18.20
2019-04-30T16:41:32.113Z,18.30
2019-04-30T16:44:03.369Z,18.40
2019-04-30T16:46:34.655Z,18.50
2019-04-30T16:49:05.953Z,18.60
2019-04-30T16:51:38.591Z,18.50
2019-04-30T16:54:10.397Z,18.40
2019-04-30T16:56:41.715Z,18.40
2019-04-30T16:59:15.575Z,18.30
2019-04-30T17:01:57.613Z,18.10
2019-04-30T17:04:26.410Z,18.00
2019-04-30T17:07:21.066Z,17.80
2019-04-30T17:10:02.510Z,17.70
2019-04-30T17:12:43.923Z,17.70
2019-04-30T17:15:21.431Z,17.70
2019-04-30T17:17:52.621Z,17.60
2019-04-30T17:20:23.890Z,17.70
2019-04-30T17:22:55.082Z,17.50
2019-04-30T17:25:26.582Z,17.50
2019-04-30T17:28:01.111Z,17.50
2019-04-30T17:30:30.801Z,17.40
2019-04-30T17:33:02.407Z,17.40
2019-04-30T17:35:33.682Z,17.40
2019-04-30T17:38:05.070Z,17.30
2019-04-30T17:40:36.413Z,17.20
2019-04-30T17:43:07.664Z,17.00
2019-04-30T17:45:39.274Z,16.90
2019-04-30T17:48:11.334Z,16.80
2019-04-30T17:50:42.741Z,16.70
2019-04-30T17:53:13.846Z,16.60
2019-04-30T17:55:45.283Z,16.50
2019-04-30T17:58:16.820Z,16.40
2019-04-30T18:00:52.233Z,16.30
2019-04-30T18:03:23.495Z,16.30
2019-04-30T18:05:54.908Z,16.20
2019-04-30T18:08:26.143Z,16.20
2019-04-30T18:10:57.512Z,16.20
2019-04-30T18:13:28.915Z,16.10
2019-04-30T18:16:00.443Z,16.00
2019-04-30T18:18:45.277Z,15.90
2019-04-30T18:21:26.236Z,15.80
2019-04-30T18:24:16.330Z,15.70
2019-04-30T18:26:52.341Z,15.70
2019-04-30T18:29:23.670Z,15.60
2019-04-30T18:31:54.993Z,15.50
2019-04-30T18:34:26.352Z,15.40
2019-04-30T18:36:59.322Z,15.20
2019-04-30T18:39:30.792Z,15.20
2019-04-30T18:42:02.133Z,15.10
2019-04-30T18:44:33.377Z,15.00
2019-04-30T18:47:04.654Z,14.90
2019-04-30T18:49:35.839Z,14.90
2019-04-30T18:52:08.996Z,14.80
2019-04-30T18:54:40.686Z,14.80
2019-04-30T18:57:12.024Z,14.70
2019-04-30T18:59:43.329Z,14.60
2019-04-30T19:02:15.351Z,14.60
2019-04-30T19:04:46.615Z,14.60
2019-04-30T19:07:41.751Z,14.50
2019-04-30T19:10:26.430Z,14.50
2019-04-30T19:13:15.465Z,14.40
2019-04-30T19:16:21.935Z,14.30
2019-04-30T19:19:00.690Z,14.30
2019-04-30T19:21:31.589Z,14.20
2019-04-30T19:24:02.845Z,14.20
2019-04-30T19:26:34.455Z,14.10
2019-04-30T19:29:07.547Z,14.00
2019-04-30T19:31:39.489Z,14.00
2019-04-30T19:34:10.948Z,14.00
2019-04-30T19:36:42.251Z,14.00
2019-04-30T19:39:13.470Z,13.90
2019-04-30T19:41:44.999Z,13.80
2019-04-30T19:44:20.647Z,13.70
2019-04-30T19:46:50.449Z,13.70
2019-04-30T19:49:21.702Z,13.70
2019-04-30T19:52:05.609Z,13.60
2019-04-30T19:54:25.962Z,13.40
2019-04-30T19:56:58.597Z,13.40
2019-04-30T19:59:29.919Z,13.30
2019-04-30T20:02:01.207Z,13.20
2019-04-30T20:04:36.239Z,13.20
2019-04-30T20:07:05.923Z,13.10
2019-04-30T20:09:37.089Z,13.10
2019-04-30T20:12:10.563Z,13.00
2019-04-30T20:14:41.634Z,13.00
2019-04-30T20:17:13.283Z,12.90
2019-04-30T20:19:44.598Z,12.80
2019-04-30T20:22:16.537Z,12.70
2019-04-30T20:24:49.186Z,12.60
2019-04-30T20:27:20.423Z,12.50
2019-04-30T20:29:51.890Z,12.40
2019-04-30T20:32:33.869Z,12.40
2019-04-30T20:34:55.988Z,12.30
2019-04-30T20:37:29.399Z,12.30
2019-04-30T20:40:08.605Z,12.20
2019-04-30T20:42:40.161Z,12.10
2019-04-30T20:45:11.512Z,12.10
2019-04-30T20:47:42.809Z,12.00
2019-04-30T20:50:14.109Z,11.90
2019-04-30T20:52:45.222Z,11.80
2019-04-30T20:55:16.573Z,11.70
2019-04-30T20:57:49.482Z,11.70
2019-04-30T21:00:21.146Z,11.60
2019-04-30T21:02:52.315Z,11.50
2019-04-30T21:05:23.582Z,11.50
2019-04-30T21:07:55.089Z,11.50
2019-04-30T21:10:26.384Z,11.40
2019-04-30T21:12:57.479Z,11.40
2019-04-30T21:15:29.708Z,11.30
2019-04-30T21:18:01.283Z,11.30
2019-04-30T21:20:32.470Z,11.20
2019-04-30T21:23:03.687Z,11.20
2019-04-30T21:25:34.879Z,11.10
2019-04-30T21:28:06.219Z,11.10
2019-04-30T21:30:37.930Z,11.10
2019-04-30T21:33:31.049Z,11.00
2019-04-30T21:36:09.096Z,11.00
2019-04-30T21:38:40.382Z,10.90
2019-04-30T21:41:11.850Z,10.90
2019-04-30T21:43:43.323Z,10.80
2019-04-30T21:46:14.818Z,10.80
2019-04-30T21:48:46.080Z,10.70
2019-04-30T21:51:19.250Z,10.70
2019-04-30T21:53:50.492Z,10.70
2019-04-30T21:56:22.426Z,10.60
2019-04-30T21:58:53.695Z,10.60
2019-04-30T22:01:26.133Z,10.50
2019-04-30T22:03:57.458Z,10.60
2019-04-30T22:06:29.621Z,10.60
2019-04-30T22:09:01.006Z,10.50
2019-04-30T22:11:32.549Z,10.40
2019-04-30T22:14:03.867Z,10.40
2019-04-30T22:16:35.328Z,10.40
2019-04-30T22:19:06.583Z,10.40
2019-04-30T22:21:39.554Z,10.30
2019-04-30T22:24:10.709Z,10.40
2019-04-30T22:26:41.820Z,10.40
2019-04-30T22:29:13.102Z,10.50
2019-04-30T22:31:44.320Z,10.30
2019-04-30T22:34:15.902Z,10.30
2019-04-30T22:36:48.933Z,10.20
2019-04-30T22:39:41.980Z,10.10
2019-04-30T22:42:36.995Z,10.00
2019-04-30T22:45:22.637Z,9.90
2019-04-30T22:47:54.226Z,9.80
2019-04-30T22:50:25.299Z,9.80
2019-04-30T22:52:57.036Z,9.80
2019-04-30T22:55:28.188Z,9.70
2019-04-30T22:57:59.373Z,9.70
2019-04-30T23:00:36.648Z,9.70
2019-04-30T23:03:27.072Z,9.70
2019-04-30T23:05:58.877Z,9.60
2019-04-30T23:08:30.298Z,9.60
2019-04-30T23:11:01.554Z,9.60
2019-04-30T23:13:32.875Z,9.60
2019-04-30T23:16:04.902Z,9.60
2019-04-30T23:18:36.522Z,9.60
2019-04-30T23:21:07.759Z,9.50
2019-04-30T23:23:38.965Z,9.50
2019-04-30T23:26:10.350Z,9.50
2019-04-30T23:28:42.326Z,9.50
2019-04-30T23:31:13.860Z,9.50
2019-04-30T23:33:45.044Z,9.50
2019-04-30T23:36:16.132Z,9.40
2019-04-30T23:38:47.352Z,9.40
2019-04-30T23:41:18.626Z,9.30
2019-04-30T23:43:50.081Z,9.40
2019-04-30T23:46:21.335Z,9.30
2019-04-30T23:48:52.546Z,9.30
2019-04-30T23:51:23.806Z,9.60
2019-04-30T23:53:55.302Z,9.80
2019-04-30T23:56:26.545Z,9.80
2019-04-30T23:58:58.094Z,9.80
